^^
Saratoga-Weather Station Historical Data
Daily Summary for January 3, 2021 Units:  Both    English   Metric
Daily Weekly Monthly Yearly Custom
  High: Low: Average:
Temperature: 78.3 °F /  25.7 °C 56.3 °F /  13.5 °C 68 °F /  20 °C
Dew Point: 64.9 °F /  18.3 °C 54.9 °F /  12.7 °C 59.2 °F /  15.1 °C
Humidity: 96% 52% 75%
Wind Speed: 4mph /  6.4km/h - 0.9mph /  1.5km/h
Wind Gust: 8mph /  12.9km/h - -
Wind- - SSW
Pressure: 30 in /  1015.9 hPa 29.9 in /  1011.9 hPa -
Precipitation: 0 in /  0.0 mm    
Historical Graphs
 
 
Tabular Data for January 3, 2021
Time Temperature Dew Point Pressure Wind Wind Speed Wind Gust Humidity Rainfall Rate (Hourly) solar
00:00 61.7 °F /  16.5 °C 56.5 °F /  13.6 °C 30in /  1015.9hPa Calm     83% 0in /  0.0mm 0 W/m2
00:05 61.5 °F /  16.4 °C 56.7 °F /  13.7 °C 30in /  1015.9hPa Calm     84% 0in /  0.0mm 0 W/m2
00:10 61.5 °F /  16.4 °C 56.7 °F /  13.7 °C 30in /  1015.9hPa Calm     84% 0in /  0.0mm 0 W/m2
00:15 61.3 °F /  16.3 °C 56.8 °F /  13.8 °C 30in /  1015.9hPa Calm     85% 0in /  0.0mm 0 W/m2
00:20 61.3 °F /  16.3 °C 56.8 °F /  13.8 °C 30in /  1015.9hPa Calm     85% 0in /  0.0mm 0 W/m2
00:25 61.2 °F /  16.2 °C 56.7 °F /  13.7 °C 30in /  1015.9hPa Calm     85% 0in /  0.0mm 0 W/m2
00:30 61.2 °F /  16.2 °C 57 °F /  13.9 °C 30in /  1015.9hPa Calm     86% 0in /  0.0mm 0 W/m2
00:35 61 °F /  16.1 °C 56.8 °F /  13.8 °C 30in /  1015.9hPa Calm     86% 0in /  0.0mm 0 W/m2
00:41 61 °F /  16.1 °C 56.8 °F /  13.8 °C 30in /  1015.9hPa Calm     86% 0in /  0.0mm 0 W/m2
00:46 60.8 °F /  16 °C 56.7 °F /  13.7 °C 30in /  1015.9hPa Calm     86% 0in /  0.0mm 0 W/m2
00:51 60.6 °F /  15.9 °C 56.7 °F /  13.7 °C 30in /  1015.9hPa Calm     87% 0in /  0.0mm 0 W/m2
00:56 60.4 °F /  15.8 °C 56.5 °F /  13.6 °C 30in /  1015.9hPa Calm     87% 0in /  0.0mm 0 W/m2
01:01 60.4 °F /  15.8 °C 56.5 °F /  13.6 °C 30in /  1015.9hPa Calm     87% 0in /  0.0mm 0 W/m2
01:06 60.3 °F /  15.7 °C 56.3 °F /  13.5 °C 30in /  1015.9hPa Calm     87% 0in /  0.0mm 0 W/m2
01:11 60.1 °F /  15.6 °C 56.5 °F /  13.6 °C 30in /  1015.9hPa Calm     88% 0in /  0.0mm 0 W/m2
01:16 59.9 °F /  15.5 °C 56.3 °F /  13.5 °C 30in /  1015.9hPa Calm     88% 0in /  0.0mm 0 W/m2
01:21 59.7 °F /  15.4 °C 56.1 °F /  13.4 °C 30in /  1015.9hPa Calm     88% 0in /  0.0mm 0 W/m2
01:26 59.5 °F /  15.3 °C 56.3 °F /  13.5 °C 30in /  1015.9hPa Calm     89% 0in /  0.0mm 0 W/m2
01:31 59.5 °F /  15.3 °C 56.3 °F /  13.5 °C 30in /  1015.6hPa Calm     89% 0in /  0.0mm 0 W/m2
01:36 59.5 °F /  15.3 °C 56.3 °F /  13.5 °C 30in /  1015.6hPa Calm     89% 0in /  0.0mm 0 W/m2
01:41 59.4 °F /  15.2 °C 56.1 °F /  13.4 °C 30in /  1015.6hPa Calm     89% 0in /  0.0mm 0 W/m2
01:46 59.4 °F /  15.2 °C 56.5 °F /  13.6 °C 30in /  1015.9hPa Calm     90% 0in /  0.0mm 0 W/m2
01:51 59.2 °F /  15.1 °C 56.3 °F /  13.5 °C 30in /  1015.6hPa Calm     90% 0in /  0.0mm 0 W/m2
01:56 59 °F /  15 °C 56.1 °F /  13.4 °C 30in /  1015.6hPa Calm     90% 0in /  0.0mm 0 W/m2
02:01 58.8 °F /  14.9 °C 55.9 °F /  13.3 °C 30in /  1015.6hPa Calm     90% 0in /  0.0mm 0 W/m2
02:06 58.6 °F /  14.8 °C 55.8 °F /  13.2 °C 30in /  1015.9hPa Calm     90% 0in /  0.0mm 0 W/m2
02:11 58.6 °F /  14.8 °C 55.9 °F /  13.3 °C 30in /  1015.6hPa Calm     91% 0in /  0.0mm 0 W/m2
02:16 58.5 °F /  14.7 °C 55.8 °F /  13.2 °C 30in /  1015.9hPa Calm     91% 0in /  0.0mm 0 W/m2
02:21 58.5 °F /  14.7 °C 55.8 °F /  13.2 °C 30in /  1015.9hPa Calm     91% 0in /  0.0mm 0 W/m2
02:26 58.5 °F /  14.7 °C 55.8 °F /  13.2 °C 30in /  1015.9hPa Calm     91% 0in /  0.0mm 0 W/m2
02:31 58.3 °F /  14.6 °C 55.9 °F /  13.3 °C 30in /  1015.9hPa Calm     92% 0in /  0.0mm 0 W/m2
02:36 58.3 °F /  14.6 °C 55.9 °F /  13.3 °C 30in /  1015.9hPa Calm     92% 0in /  0.0mm 0 W/m2
02:41 58.3 °F /  14.6 °C 55.9 °F /  13.3 °C 30in /  1015.9hPa Calm     92% 0in /  0.0mm 0 W/m2
02:46 58.1 °F /  14.5 °C 55.8 °F /  13.2 °C 30in /  1015.9hPa Calm     92% 0in /  0.0mm 0 W/m2
02:51 57.9 °F /  14.4 °C 55.6 °F /  13.1 °C 30in /  1015.9hPa Calm     92% 0in /  0.0mm 0 W/m2
02:56 57.9 °F /  14.4 °C 55.6 °F /  13.1 °C 30in /  1015.9hPa Calm     92% 0in /  0.0mm 0 W/m2
03:01 57.7 °F /  14.3 °C 55.4 °F /  13 °C 30in /  1015.9hPa Calm     92% 0in /  0.0mm 0 W/m2
03:06 57.7 °F /  14.3 °C 55.4 °F /  13 °C 30in /  1015.9hPa Calm     92% 0in /  0.0mm 0 W/m2
03:11 57.7 °F /  14.3 °C 55.8 °F /  13.2 °C 30in /  1015.9hPa Calm     93% 0in /  0.0mm 0 W/m2
03:16 57.6 °F /  14.2 °C 55.6 °F /  13.1 °C 30in /  1015.9hPa Calm     93% 0in /  0.0mm 0 W/m2
03:22 57.6 °F /  14.2 °C 55.6 °F /  13.1 °C 30in /  1015.9hPa Calm     93% 0in /  0.0mm 0 W/m2
03:27 57.6 °F /  14.2 °C 55.6 °F /  13.1 °C 30in /  1015.9hPa Calm     93% 0in /  0.0mm 0 W/m2
03:32 57.6 °F /  14.2 °C 55.6 °F /  13.1 °C 30in /  1015.9hPa Calm     93% 0in /  0.0mm 0 W/m2
03:37 57.4 °F /  14.1 °C 55.4 °F /  13 °C 30in /  1015.9hPa Calm     93% 0in /  0.0mm 0 W/m2
03:42 57.4 °F /  14.1 °C 55.4 °F /  13 °C 30in /  1015.9hPa Calm     93% 0in /  0.0mm 0 W/m2
03:47 57.2 °F /  14 °C 55.2 °F /  12.9 °C 30in /  1015.6hPa Calm     93% 0in /  0.0mm 0 W/m2
03:52 57 °F /  13.9 °C 55 °F /  12.8 °C 30in /  1015.6hPa Calm     93% 0in /  0.0mm 0 W/m2
03:57 57 °F /  13.9 °C 55 °F /  12.8 °C 30in /  1015.9hPa Calm     93% 0in /  0.0mm 0 W/m2
04:02 56.8 °F /  13.8 °C 54.9 °F /  12.7 °C 30in /  1015.6hPa Calm     93% 0in /  0.0mm 0 W/m2
04:07 56.8 °F /  13.8 °C 54.9 °F /  12.7 °C 30in /  1015.6hPa Calm     93% 0in /  0.0mm 0 W/m2
04:12 56.8 °F /  13.8 °C 55.2 °F /  12.9 °C 30in /  1015.6hPa Calm     94% 0in /  0.0mm 0 W/m2
04:17 56.8 °F /  13.8 °C 55.2 °F /  12.9 °C 30in /  1015.6hPa Calm     94% 0in /  0.0mm 0 W/m2
04:22 56.8 °F /  13.8 °C 55.2 °F /  12.9 °C 30in /  1015.6hPa Calm     94% 0in /  0.0mm 0 W/m2
04:27 56.7 °F /  13.7 °C 55 °F /  12.8 °C 30in /  1015.6hPa Calm     94% 0in /  0.0mm 0 W/m2
04:32 56.7 °F /  13.7 °C 55 °F /  12.8 °C 30in /  1015.6hPa Calm     94% 0in /  0.0mm 0 W/m2
04:37 56.7 °F /  13.7 °C 55 °F /  12.8 °C 30in /  1015.6hPa Calm     94% 0in /  0.0mm 0 W/m2
04:42 56.7 °F /  13.7 °C 55 °F /  12.8 °C 30in /  1015.6hPa Calm     94% 0in /  0.0mm 0 W/m2
04:47 56.7 °F /  13.7 °C 55 °F /  12.8 °C 30in /  1015.6hPa Calm     94% 0in /  0.0mm 0 W/m2
04:52 56.7 °F /  13.7 °C 55 °F /  12.8 °C 30in /  1015.6hPa Calm     94% 0in /  0.0mm 0 W/m2
04:57 56.5 °F /  13.6 °C 54.9 °F /  12.7 °C 30in /  1015.6hPa Calm     94% 0in /  0.0mm 0 W/m2
05:02 56.5 °F /  13.6 °C 54.9 °F /  12.7 °C 30in /  1015.6hPa Calm     94% 0in /  0.0mm 0 W/m2
05:07 56.5 °F /  13.6 °C 55 °F /  12.8 °C 30in /  1015.6hPa Calm     95% 0in /  0.0mm 0 W/m2
05:12 56.7 °F /  13.7 °C 55.2 °F /  12.9 °C 30in /  1015.6hPa Calm     95% 0in /  0.0mm 0 W/m2
05:17 56.5 °F /  13.6 °C 55 °F /  12.8 °C 30in /  1015.2hPa Calm     95% 0in /  0.0mm 0 W/m2
05:22 56.5 °F /  13.6 °C 55 °F /  12.8 °C 30in /  1015.2hPa Calm     95% 0in /  0.0mm 0 W/m2
05:27 56.3 °F /  13.5 °C 54.9 °F /  12.7 °C 30in /  1015.2hPa Calm     95% 0in /  0.0mm 5 W/m2
05:32 56.3 °F /  13.5 °C 54.9 °F /  12.7 °C 30in /  1015.2hPa Calm     95% 0in /  0.0mm 5 W/m2
05:37 56.3 °F /  13.5 °C 54.9 °F /  12.7 °C 30in /  1015.2hPa Calm     95% 0in /  0.0mm 7 W/m2
05:42 56.3 °F /  13.5 °C 54.9 °F /  12.7 °C 30in /  1015.2hPa Calm     95% 0in /  0.0mm 11 W/m2
05:47 56.5 °F /  13.6 °C 55 °F /  12.8 °C 30in /  1015.2hPa Calm     95% 0in /  0.0mm 14 W/m2
05:52 56.5 °F /  13.6 °C 55 °F /  12.8 °C 30in /  1015.2hPa Calm     95% 0in /  0.0mm 16 W/m2
05:57 56.5 °F /  13.6 °C 55 °F /  12.8 °C 30in /  1015.2hPa Calm     95% 0in /  0.0mm 21 W/m2
06:02 56.7 °F /  13.7 °C 55.2 °F /  12.9 °C 30in /  1015.2hPa Calm     95% 0in /  0.0mm 26 W/m2
06:07 56.7 °F /  13.7 °C 55.2 °F /  12.9 °C 30in /  1015.2hPa Calm     95% 0in /  0.0mm 26 W/m2
06:12 56.7 °F /  13.7 °C 55.2 °F /  12.9 °C 30in /  1015.2hPa Calm     95% 0in /  0.0mm 30 W/m2
06:17 56.7 °F /  13.7 °C 55.2 °F /  12.9 °C 30in /  1015.2hPa Calm     95% 0in /  0.0mm 32 W/m2
06:22 56.7 °F /  13.7 °C 55.2 °F /  12.9 °C 30in /  1015.2hPa Calm     95% 0in /  0.0mm 35 W/m2
06:27 56.7 °F /  13.7 °C 55.2 °F /  12.9 °C 30in /  1015.2hPa Calm     95% 0in /  0.0mm 35 W/m2
06:32 56.8 °F /  13.8 °C 55.4 °F /  13 °C 30in /  1015.2hPa Calm     95% 0in /  0.0mm 40 W/m2
06:37 56.8 °F /  13.8 °C 55.4 °F /  13 °C 30in /  1015.2hPa Calm     95% 0in /  0.0mm 42 W/m2
06:42 56.8 °F /  13.8 °C 55.4 °F /  13 °C 30in /  1015.2hPa Calm     95% 0in /  0.0mm 37 W/m2
06:47 57 °F /  13.9 °C 55.6 °F /  13.1 °C 30in /  1015.2hPa Calm     95% 0in /  0.0mm 37 W/m2
06:52 57.2 °F /  14 °C 56.1 °F /  13.4 °C 30in /  1015.2hPa WSW 0.9mph /  1.4km/h 2mph /  3.2km/h 96% 0in /  0.0mm 32 W/m2
06:57 57.2 °F /  14 °C 56.1 °F /  13.4 °C 30in /  1015.2hPa Calm   1mph /  1.6km/h 96% 0in /  0.0mm 32 W/m2
07:02 57.4 °F /  14.1 °C 56.3 °F /  13.5 °C 30in /  1015.2hPa Calm   2mph /  3.2km/h 96% 0in /  0.0mm 32 W/m2
07:07 57.4 °F /  14.1 °C 55.9 °F /  13.3 °C 30in /  1015.2hPa Calm     95% 0in /  0.0mm 46 W/m2
07:12 57.6 °F /  14.2 °C 56.1 °F /  13.4 °C 30in /  1015.2hPa Calm   1mph /  1.6km/h 95% 0in /  0.0mm 60 W/m2
07:17 57.7 °F /  14.3 °C 56.7 °F /  13.7 °C 30in /  1015.2hPa Calm   1mph /  1.6km/h 96% 0in /  0.0mm 81 W/m2
07:22 58.1 °F /  14.5 °C 57 °F /  13.9 °C 30in /  1015.2hPa Calm   1mph /  1.6km/h 96% 0in /  0.0mm 95 W/m2
07:27 58.5 °F /  14.7 °C 57.4 °F /  14.1 °C 30in /  1015.2hPa NE 0.9mph /  1.4km/h 2mph /  3.2km/h 96% 0in /  0.0mm 102 W/m2
07:32 58.6 °F /  14.8 °C 57.2 °F /  14 °C 30in /  1015.2hPa ENE 0.9mph /  1.4km/h 2mph /  3.2km/h 95% 0in /  0.0mm 111 W/m2
07:37 59.2 °F /  15.1 °C 57.7 °F /  14.3 °C 30in /  1015.2hPa ENE 2mph /  3.2km/h 3mph /  4.8km/h 95% 0in /  0.0mm 109 W/m2
07:42 59.4 °F /  15.2 °C 57.6 °F /  14.2 °C 30in /  1015.2hPa NE 2mph /  3.2km/h 3mph /  4.8km/h 94% 0in /  0.0mm 109 W/m2
07:47 59.7 °F /  15.4 °C 57.9 °F /  14.4 °C 30in /  1015.2hPa ENE 0.9mph /  1.4km/h 2mph /  3.2km/h 94% 0in /  0.0mm 125 W/m2
07:52 60.1 °F /  15.6 °C 58.1 °F /  14.5 °C 30in /  1015.2hPa NE 0.9mph /  1.4km/h 4mph /  6.4km/h 93% 0in /  0.0mm 137 W/m2
07:57 60.3 °F /  15.7 °C 57.9 °F /  14.4 °C 30in /  1015.2hPa Calm   1mph /  1.6km/h 92% 0in /  0.0mm 116 W/m2
08:02 60.4 °F /  15.8 °C 58.1 °F /  14.5 °C 30in /  1015.2hPa Calm   4mph /  6.4km/h 92% 0in /  0.0mm 123 W/m2
08:07 60.8 °F /  16 °C 58.1 °F /  14.5 °C 30in /  1015.2hPa Calm   2mph /  3.2km/h 91% 0in /  0.0mm 218 W/m2
08:12 61 °F /  16.1 °C 58.1 °F /  14.5 °C 30in /  1015.2hPa Calm   1mph /  1.6km/h 90% 0in /  0.0mm 174 W/m2
08:17 61.3 °F /  16.3 °C 58.5 °F /  14.7 °C 30in /  1015.2hPa NE 2mph /  3.2km/h 2mph /  3.2km/h 90% 0in /  0.0mm 125 W/m2
08:22 62.1 °F /  16.7 °C 58.8 °F /  14.9 °C 30in /  1015.2hPa NE 0.9mph /  1.4km/h 3mph /  4.8km/h 89% 0in /  0.0mm 100 W/m2
08:27 62.6 °F /  17 °C 59 °F /  15 °C 30in /  1015.2hPa East 0.9mph /  1.4km/h 3mph /  4.8km/h 88% 0in /  0.0mm 107 W/m2
08:32 63.3 °F /  17.4 °C 59 °F /  15 °C 30in /  1015.2hPa NE 2mph /  3.2km/h 2mph /  3.2km/h 86% 0in /  0.0mm 107 W/m2
08:37 64 °F /  17.8 °C 59.4 °F /  15.2 °C 30in /  1015.2hPa East 2mph /  3.2km/h 3mph /  4.8km/h 85% 0in /  0.0mm 111 W/m2
08:42 64.8 °F /  18.2 °C 59.5 °F /  15.3 °C 30in /  1015.2hPa ENE 0.9mph /  1.4km/h 2mph /  3.2km/h 83% 0in /  0.0mm 107 W/m2
08:47 64.9 °F /  18.3 °C 59.4 °F /  15.2 °C 30in /  1015.2hPa ENE 0.9mph /  1.4km/h 2mph /  3.2km/h 82% 0in /  0.0mm 109 W/m2
08:52 65.1 °F /  18.4 °C 59.5 °F /  15.3 °C 30in /  1015.2hPa ENE 0.9mph /  1.4km/h 2mph /  3.2km/h 82% 0in /  0.0mm 107 W/m2
08:57 65.5 °F /  18.6 °C 60.3 °F /  15.7 °C 30in /  1015.2hPa East 0.9mph /  1.4km/h 2mph /  3.2km/h 83% 0in /  0.0mm 113 W/m2
09:02 65.8 °F /  18.8 °C 59.9 °F /  15.5 °C 30in /  1015.2hPa Calm   2mph /  3.2km/h 81% 0in /  0.0mm 114 W/m2
09:07 66 °F /  18.9 °C 60.1 °F /  15.6 °C 30in /  1015.2hPa ENE 0.9mph /  1.4km/h 3mph /  4.8km/h 81% 0in /  0.0mm 109 W/m2
09:12 66.2 °F /  19 °C 59.9 °F /  15.5 °C 30in /  1015.2hPa East 2.9mph /  4.7km/h 4mph /  6.4km/h 80% 0in /  0.0mm 146 W/m2
09:17 66.4 °F /  19.1 °C 59.7 °F /  15.4 °C 30in /  1015.2hPa NE 0.9mph /  1.4km/h 2mph /  3.2km/h 79% 0in /  0.0mm 269 W/m2
09:22 66.7 °F /  19.3 °C 60.1 °F /  15.6 °C 30in /  1014.9hPa NE 2mph /  3.2km/h 3mph /  4.8km/h 79% 0in /  0.0mm 459 W/m2
09:27 66.9 °F /  19.4 °C 60.3 °F /  15.7 °C 30in /  1014.9hPa ENE 2mph /  3.2km/h 4mph /  6.4km/h 79% 0in /  0.0mm 473 W/m2
09:32 67.3 °F /  19.6 °C 59.9 °F /  15.5 °C 30in /  1014.9hPa NE 2.9mph /  4.7km/h 5mph /  8km/h 77% 0in /  0.0mm 499 W/m2
09:37 67.6 °F /  19.8 °C 60.3 °F /  15.7 °C 30in /  1014.9hPa ENE 2mph /  3.2km/h 3mph /  4.8km/h 77% 0in /  0.0mm 512 W/m2
09:42 67.6 °F /  19.8 °C 59.7 °F /  15.4 °C 30in /  1014.9hPa NE 2mph /  3.2km/h 5mph /  8km/h 76% 0in /  0.0mm 538 W/m2
09:47 68 °F /  20 °C 60.1 °F /  15.6 °C 30in /  1014.9hPa Calm   3mph /  4.8km/h 76% 0in /  0.0mm 552 W/m2
09:52 68.5 °F /  20.3 °C 61 °F /  16.1 °C 30in /  1014.9hPa ESE 2mph /  3.2km/h 3mph /  4.8km/h 77% 0in /  0.0mm 510 W/m2
09:57 69.1 °F /  20.6 °C 60.8 °F /  16 °C 30in /  1014.9hPa East 0.9mph /  1.4km/h 3mph /  4.8km/h 75% 0in /  0.0mm 524 W/m2
10:02 69.3 °F /  20.7 °C 60.6 °F /  15.9 °C 30in /  1014.6hPa Calm   1mph /  1.6km/h 74% 0in /  0.0mm 577 W/m2
10:07 70 °F /  21.1 °C 61.3 °F /  16.3 °C 30in /  1014.6hPa Calm   3mph /  4.8km/h 74% 0in /  0.0mm 584 W/m2
10:12 70.3 °F /  21.3 °C 60.8 °F /  16 °C 30in /  1014.6hPa ENE 2mph /  3.2km/h 3mph /  4.8km/h 72% 0in /  0.0mm 95 W/m2
10:17 70.9 °F /  21.6 °C 61.3 °F /  16.3 °C 30in /  1014.6hPa Calm   3mph /  4.8km/h 72% 0in /  0.0mm 162 W/m2
10:22 71.2 °F /  21.8 °C 60.6 °F /  15.9 °C 30in /  1014.6hPa ESE 2.9mph /  4.7km/h 4mph /  6.4km/h 69% 0in /  0.0mm 635 W/m2
10:27 71.4 °F /  21.9 °C 61.2 °F /  16.2 °C 30in /  1014.6hPa ENE 0.9mph /  1.4km/h 4mph /  6.4km/h 70% 0in /  0.0mm 652 W/m2
10:32 71.6 °F /  22 °C 60.8 °F /  16 °C 30in /  1014.6hPa NE 0.9mph /  1.4km/h 3mph /  4.8km/h 69% 0in /  0.0mm 671 W/m2
10:37 72 °F /  22.2 °C 60.8 °F /  16 °C 30in /  1014.6hPa East 2.9mph /  4.7km/h 8mph /  12.9km/h 68% 0in /  0.0mm 647 W/m2
10:42 72.1 °F /  22.3 °C 61.3 °F /  16.3 °C 30in /  1014.6hPa ENE 2mph /  3.2km/h 3mph /  4.8km/h 69% 0in /  0.0mm 647 W/m2
10:47 72.1 °F /  22.3 °C 60.6 °F /  15.9 °C 30in /  1014.6hPa Calm   6mph /  9.7km/h 67% 0in /  0.0mm 624 W/m2
10:52 72.5 °F /  22.5 °C 61.3 °F /  16.3 °C 30in /  1014.6hPa Calm   3mph /  4.8km/h 68% 0in /  0.0mm 633 W/m2
10:57 72.9 °F /  22.7 °C 60.4 °F /  15.8 °C 30in /  1014.6hPa NE 2.9mph /  4.7km/h 6mph /  9.7km/h 65% 0in /  0.0mm 659 W/m2
11:02 73.2 °F /  22.9 °C 61.2 °F /  16.2 °C 30in /  1014.6hPa East 2.9mph /  4.7km/h 4mph /  6.4km/h 66% 0in /  0.0mm 735 W/m2
11:07 73.6 °F /  23.1 °C 61.2 °F /  16.2 °C 30in /  1014.6hPa Calm   6mph /  9.7km/h 65% 0in /  0.0mm 571 W/m2
11:12 73.9 °F /  23.3 °C 60.6 °F /  15.9 °C 30in /  1014.6hPa ESE 2.9mph /  4.7km/h 6mph /  9.7km/h 63% 0in /  0.0mm 443 W/m2
11:17 74.1 °F /  23.4 °C 61.2 °F /  16.2 °C 30in /  1014.6hPa Calm   4mph /  6.4km/h 64% 0in /  0.0mm 483 W/m2
11:22 74.1 °F /  23.4 °C 60.8 °F /  16 °C 30in /  1014.6hPa East 0.9mph /  1.4km/h 3mph /  4.8km/h 63% 0in /  0.0mm 445 W/m2
11:27 74.5 °F /  23.6 °C 61.5 °F /  16.4 °C 30in /  1014.2hPa North 0.9mph /  1.4km/h 2mph /  3.2km/h 64% 0in /  0.0mm 536 W/m2
11:32 74.7 °F /  23.7 °C 61.2 °F /  16.2 °C 30in /  1014.2hPa Calm   2mph /  3.2km/h 63% 0in /  0.0mm 455 W/m2
11:37 75 °F /  23.9 °C 61.5 °F /  16.4 °C 30in /  1014.6hPa ESE 0.9mph /  1.4km/h 3mph /  4.8km/h 63% 0in /  0.0mm 663 W/m2
11:42 75.7 °F /  24.3 °C 61.9 °F /  16.6 °C 30in /  1014.2hPa East 4mph /  6.4km/h 4mph /  6.4km/h 62% 0in /  0.0mm 580 W/m2
11:47 75.7 °F /  24.3 °C 60.4 °F /  15.8 °C 30in /  1014.6hPa SSW 0.9mph /  1.4km/h 3mph /  4.8km/h 59% 0in /  0.0mm 519 W/m2
11:52 75.6 °F /  24.2 °C 60.3 °F /  15.7 °C 30in /  1014.2hPa East 0.9mph /  1.4km/h 1mph /  1.6km/h 59% 0in /  0.0mm 573 W/m2
11:57 75.4 °F /  24.1 °C 60.4 °F /  15.8 °C 30in /  1014.2hPa SE 0.9mph /  1.4km/h 6mph /  9.7km/h 60% 0in /  0.0mm 522 W/m2
12:02 75.2 °F /  24 °C 60.4 °F /  15.8 °C 30in /  1014.2hPa Calm   2mph /  3.2km/h 60% 0in /  0.0mm 517 W/m2
12:07 75.4 °F /  24.1 °C 60.4 °F /  15.8 °C 30in /  1014.2hPa NW 0.9mph /  1.4km/h 1mph /  1.6km/h 60% 0in /  0.0mm 615 W/m2
12:12 75.6 °F /  24.2 °C 61.2 °F /  16.2 °C 30in /  1014.2hPa ENE 0.9mph /  1.4km/h 3mph /  4.8km/h 61% 0in /  0.0mm 663 W/m2
12:17 75.9 °F /  24.4 °C 60.1 °F /  15.6 °C 30in /  1014.2hPa NNE 0.9mph /  1.4km/h 2mph /  3.2km/h 58% 0in /  0.0mm 587 W/m2
12:22 76.3 °F /  24.6 °C 60.4 °F /  15.8 °C 30in /  1014.2hPa Calm   2mph /  3.2km/h 58% 0in /  0.0mm 487 W/m2
12:27 76.3 °F /  24.6 °C 59.9 °F /  15.5 °C 30in /  1014.2hPa East 2mph /  3.2km/h 6mph /  9.7km/h 57% 0in /  0.0mm 429 W/m2
12:32 75.9 °F /  24.4 °C 59.5 °F /  15.3 °C 30in /  1014.2hPa NW 2mph /  3.2km/h 2mph /  3.2km/h 57% 0in /  0.0mm 383 W/m2
12:37 75.7 °F /  24.3 °C 58.5 °F /  14.7 °C 29.9in /  1013.9hPa NW 0.9mph /  1.4km/h 6mph /  9.7km/h 55% 0in /  0.0mm 329 W/m2
12:42 75.7 °F /  24.3 °C 59 °F /  15 °C 29.9in /  1013.9hPa Calm   2mph /  3.2km/h 56% 0in /  0.0mm 318 W/m2
12:47 75.7 °F /  24.3 °C 57.9 °F /  14.4 °C 29.9in /  1013.9hPa Calm   2mph /  3.2km/h 54% 0in /  0.0mm 320 W/m2
12:52 75.7 °F /  24.3 °C 59.4 °F /  15.2 °C 29.9in /  1013.9hPa WSW 0.9mph /  1.4km/h 4mph /  6.4km/h 57% 0in /  0.0mm 316 W/m2
12:57 75.7 °F /  24.3 °C 59.4 °F /  15.2 °C 29.9in /  1013.9hPa WNW 2mph /  3.2km/h 2mph /  3.2km/h 57% 0in /  0.0mm 292 W/m2
13:02 75.7 °F /  24.3 °C 59.4 °F /  15.2 °C 29.9in /  1013.9hPa WNW 0.9mph /  1.4km/h 4mph /  6.4km/h 57% 0in /  0.0mm 265 W/m2
13:07 75.7 °F /  24.3 °C 60.4 °F /  15.8 °C 29.9in /  1013.9hPa Calm   2mph /  3.2km/h 59% 0in /  0.0mm 244 W/m2
13:12 75.9 °F /  24.4 °C 60.6 °F /  15.9 °C 29.9in /  1013.9hPa Calm   1mph /  1.6km/h 59% 0in /  0.0mm 227 W/m2
13:17 75.9 °F /  24.4 °C 61.5 °F /  16.4 °C 29.9in /  1013.5hPa Calm   2mph /  3.2km/h 61% 0in /  0.0mm 216 W/m2
13:22 75.9 °F /  24.4 °C 60.6 °F /  15.9 °C 29.9in /  1013.5hPa ESE 0.9mph /  1.4km/h 3mph /  4.8km/h 59% 0in /  0.0mm 209 W/m2
13:27 75.7 °F /  24.3 °C 62.2 °F /  16.8 °C 29.9in /  1013.5hPa Calm     63% 0in /  0.0mm 211 W/m2
13:32 75.7 °F /  24.3 °C 60.4 °F /  15.8 °C 29.9in /  1013.5hPa Calm     59% 0in /  0.0mm 214 W/m2
13:37 75.7 °F /  24.3 °C 63.5 °F /  17.5 °C 29.9in /  1013.5hPa Calm     66% 0in /  0.0mm 225 W/m2
13:43 75.9 °F /  24.4 °C 63.7 °F /  17.6 °C 29.9in /  1013.5hPa Calm     66% 0in /  0.0mm 251 W/m2
13:48 75.9 °F /  24.4 °C 60.6 °F /  15.9 °C 29.9in /  1013.5hPa Calm   1mph /  1.6km/h 59% 0in /  0.0mm 265 W/m2
13:53 75.9 °F /  24.4 °C 61 °F /  16.1 °C 29.9in /  1013.5hPa SW 0.9mph /  1.4km/h 1mph /  1.6km/h 60% 0in /  0.0mm 276 W/m2
13:58 75.7 °F /  24.3 °C 59.9 °F /  15.5 °C 29.9in /  1013.5hPa Calm     58% 0in /  0.0mm 287 W/m2
14:03 75.9 °F /  24.4 °C 60.6 °F /  15.9 °C 29.9in /  1013.5hPa Calm   2mph /  3.2km/h 59% 0in /  0.0mm 295 W/m2
14:08 75.7 °F /  24.3 °C 60.4 °F /  15.8 °C 29.9in /  1013.5hPa Calm   2mph /  3.2km/h 59% 0in /  0.0mm 292 W/m2
14:13 75.7 °F /  24.3 °C 61.9 °F /  16.6 °C 29.9in /  1013.5hPa Calm   1mph /  1.6km/h 62% 0in /  0.0mm 285 W/m2
14:18 75.9 °F /  24.4 °C 60.6 °F /  15.9 °C 29.9in /  1013.5hPa Calm   1mph /  1.6km/h 59% 0in /  0.0mm 288 W/m2
14:23 75.9 °F /  24.4 °C 61 °F /  16.1 °C 29.9in /  1013.5hPa West 0.9mph /  1.4km/h 2mph /  3.2km/h 60% 0in /  0.0mm 294 W/m2
14:28 75.9 °F /  24.4 °C 62.4 °F /  16.9 °C 29.9in /  1013.5hPa West 2mph /  3.2km/h 2mph /  3.2km/h 63% 0in /  0.0mm 278 W/m2
14:33 75.7 °F /  24.3 °C 60.4 °F /  15.8 °C 29.9in /  1013.2hPa WNW 0.9mph /  1.4km/h 3mph /  4.8km/h 59% 0in /  0.0mm 271 W/m2
14:38 75.7 °F /  24.3 °C 61.3 °F /  16.3 °C 29.9in /  1013.2hPa Calm   2mph /  3.2km/h 61% 0in /  0.0mm 279 W/m2
14:43 75.6 °F /  24.2 °C 60.3 °F /  15.7 °C 29.9in /  1013.2hPa NW 2mph /  3.2km/h 4mph /  6.4km/h 59% 0in /  0.0mm 301 W/m2
14:48 75.4 °F /  24.1 °C 61 °F /  16.1 °C 29.9in /  1013.2hPa WNW 0.9mph /  1.4km/h 4mph /  6.4km/h 61% 0in /  0.0mm 325 W/m2
14:53 75.4 °F /  24.1 °C 60.4 °F /  15.8 °C 29.9in /  1013.2hPa WSW 2.9mph /  4.7km/h 4mph /  6.4km/h 60% 0in /  0.0mm 346 W/m2
14:58 75.4 °F /  24.1 °C 61.5 °F /  16.4 °C 29.9in /  1013.2hPa West 0.9mph /  1.4km/h 2mph /  3.2km/h 62% 0in /  0.0mm 411 W/m2
15:03 75.4 °F /  24.1 °C 60.4 °F /  15.8 °C 29.9in /  1013.2hPa WSW 0.9mph /  1.4km/h 3mph /  4.8km/h 60% 0in /  0.0mm 422 W/m2
15:08 75.6 °F /  24.2 °C 60.6 °F /  15.9 °C 29.9in /  1013.2hPa West 2.9mph /  4.7km/h 5mph /  8km/h 60% 0in /  0.0mm 422 W/m2
15:13 75.7 °F /  24.3 °C 60.4 °F /  15.8 °C 29.9in /  1013.2hPa West 2.9mph /  4.7km/h 4mph /  6.4km/h 59% 0in /  0.0mm 431 W/m2
15:18 75.9 °F /  24.4 °C 61.5 °F /  16.4 °C 29.9in /  1013.2hPa West 2mph /  3.2km/h 2mph /  3.2km/h 61% 0in /  0.0mm 439 W/m2
15:23 76.1 °F /  24.5 °C 60.3 °F /  15.7 °C 29.9in /  1013.2hPa NW 2mph /  3.2km/h 3mph /  4.8km/h 58% 0in /  0.0mm 461 W/m2
15:28 76.5 °F /  24.7 °C 60.1 °F /  15.6 °C 29.9in /  1013.2hPa West 2mph /  3.2km/h 4mph /  6.4km/h 57% 0in /  0.0mm 466 W/m2
15:33 76.6 °F /  24.8 °C 59.2 °F /  15.1 °C 29.9in /  1013.2hPa West 2mph /  3.2km/h 4mph /  6.4km/h 55% 0in /  0.0mm 497 W/m2
15:38 76.8 °F /  24.9 °C 59.4 °F /  15.2 °C 29.9in /  1013.2hPa NW 2.9mph /  4.7km/h 3mph /  4.8km/h 55% 0in /  0.0mm 482 W/m2
15:43 77.2 °F /  25.1 °C 60.3 °F /  15.7 °C 29.9in /  1013.2hPa NW 2.9mph /  4.7km/h 6mph /  9.7km/h 56% 0in /  0.0mm 432 W/m2
15:48 76.8 °F /  24.9 °C 59 °F /  15 °C 29.9in /  1013.2hPa WSW 0.9mph /  1.4km/h 3mph /  4.8km/h 54% 0in /  0.0mm 408 W/m2
15:53 76.8 °F /  24.9 °C 57.9 °F /  14.4 °C 29.9in /  1013.2hPa WSW 0.9mph /  1.4km/h 6mph /  9.7km/h 52% 0in /  0.0mm 418 W/m2
15:58 77 °F /  25 °C 58.6 °F /  14.8 °C 29.9in /  1012.9hPa West 2mph /  3.2km/h 4mph /  6.4km/h 53% 0in /  0.0mm 429 W/m2
16:03 77.2 °F /  25.1 °C 58.3 °F /  14.6 °C 29.9in /  1012.9hPa West 0.9mph /  1.4km/h 1mph /  1.6km/h 52% 0in /  0.0mm 466 W/m2
16:08 77.5 °F /  25.3 °C 60.1 °F /  15.6 °C 29.9in /  1012.9hPa West 2mph /  3.2km/h 3mph /  4.8km/h 55% 0in /  0.0mm 489 W/m2
16:13 77.7 °F /  25.4 °C 60.3 °F /  15.7 °C 29.9in /  1012.9hPa WNW 2.9mph /  4.7km/h 3mph /  4.8km/h 55% 0in /  0.0mm 545 W/m2
16:18 77.7 °F /  25.4 °C 61.3 °F /  16.3 °C 29.9in /  1012.9hPa WSW 2mph /  3.2km/h 7mph /  11.3km/h 57% 0in /  0.0mm 512 W/m2
16:23 77.7 °F /  25.4 °C 59.7 °F /  15.4 °C 29.9in /  1012.9hPa WNW 2mph /  3.2km/h 4mph /  6.4km/h 54% 0in /  0.0mm 459 W/m2
16:28 77.5 °F /  25.3 °C 59.5 °F /  15.3 °C 29.9in /  1012.9hPa West 0.9mph /  1.4km/h 3mph /  4.8km/h 54% 0in /  0.0mm 383 W/m2
16:33 77.7 °F /  25.4 °C 60.3 °F /  15.7 °C 29.9in /  1012.9hPa West 2.9mph /  4.7km/h 4mph /  6.4km/h 55% 0in /  0.0mm 729 W/m2
16:38 77.9 °F /  25.5 °C 59.4 °F /  15.2 °C 29.9in /  1012.9hPa WSW 2mph /  3.2km/h 4mph /  6.4km/h 53% 0in /  0.0mm 452 W/m2
16:43 77.7 °F /  25.4 °C 58.6 °F /  14.8 °C 29.9in /  1012.9hPa Calm   6mph /  9.7km/h 52% 0in /  0.0mm 478 W/m2
16:48 77.9 °F /  25.5 °C 59.9 °F /  15.5 °C 29.9in /  1012.9hPa SSW 0.9mph /  1.4km/h 2mph /  3.2km/h 54% 0in /  0.0mm 381 W/m2
16:53 77.9 °F /  25.5 °C 58.8 °F /  14.9 °C 29.9in /  1012.9hPa NW 2.9mph /  4.7km/h 4mph /  6.4km/h 52% 0in /  0.0mm 381 W/m2
16:58 77.7 °F /  25.4 °C 59.2 °F /  15.1 °C 29.9in /  1012.9hPa WNW 2.9mph /  4.7km/h 6mph /  9.7km/h 53% 0in /  0.0mm 388 W/m2
17:03 77.5 °F /  25.3 °C 59.5 °F /  15.3 °C 29.9in /  1012.9hPa NW 0.9mph /  1.4km/h 3mph /  4.8km/h 54% 0in /  0.0mm 364 W/m2
17:08 77.5 °F /  25.3 °C 59 °F /  15 °C 29.9in /  1012.9hPa Calm   1mph /  1.6km/h 53% 0in /  0.0mm 348 W/m2
17:13 77.7 °F /  25.4 °C 60.3 °F /  15.7 °C 29.9in /  1012.9hPa Calm   2mph /  3.2km/h 55% 0in /  0.0mm 350 W/m2
17:18 77.9 °F /  25.5 °C 59.4 °F /  15.2 °C 29.9in /  1012.9hPa WSW 0.9mph /  1.4km/h 3mph /  4.8km/h 53% 0in /  0.0mm 315 W/m2
17:23 77.7 °F /  25.4 °C 59.2 °F /  15.1 °C 29.9in /  1012.5hPa WSW 2mph /  3.2km/h 3mph /  4.8km/h 53% 0in /  0.0mm 403 W/m2
17:28 77.7 °F /  25.4 °C 59.2 °F /  15.1 °C 29.9in /  1012.5hPa West 0.9mph /  1.4km/h 2mph /  3.2km/h 53% 0in /  0.0mm 287 W/m2
17:33 77.7 °F /  25.4 °C 59.7 °F /  15.4 °C 29.9in /  1012.5hPa Calm   3mph /  4.8km/h 54% 0in /  0.0mm 260 W/m2
17:38 78.1 °F /  25.6 °C 60.6 °F /  15.9 °C 29.9in /  1012.5hPa Calm   1mph /  1.6km/h 55% 0in /  0.0mm 236 W/m2
17:43 78.1 °F /  25.6 °C 60.6 °F /  15.9 °C 29.9in /  1012.2hPa West 0.9mph /  1.4km/h 2mph /  3.2km/h 55% 0in /  0.0mm 223 W/m2
17:48 78.3 °F /  25.7 °C 61.7 °F /  16.5 °C 29.9in /  1012.2hPa Calm   1mph /  1.6km/h 57% 0in /  0.0mm 218 W/m2
17:53 78.1 °F /  25.6 °C 62.6 °F /  17 °C 29.9in /  1012.2hPa Calm     59% 0in /  0.0mm 204 W/m2
17:58 78.1 °F /  25.6 °C 63.5 °F /  17.5 °C 29.9in /  1012.2hPa Calm     61% 0in /  0.0mm 197 W/m2
18:03 78.3 °F /  25.7 °C 63.7 °F /  17.6 °C 29.9in /  1012.2hPa Calm     61% 0in /  0.0mm 188 W/m2
18:08 78.3 °F /  25.7 °C 63.7 °F /  17.6 °C 29.9in /  1012.2hPa Calm     61% 0in /  0.0mm 178 W/m2
18:13 78.3 °F /  25.7 °C 64.2 °F /  17.9 °C 29.9in /  1012.2hPa Calm     62% 0in /  0.0mm 165 W/m2
18:18 78.1 °F /  25.6 °C 64.9 °F /  18.3 °C 29.9in /  1011.9hPa Calm     64% 0in /  0.0mm 153 W/m2
18:23 77.7 °F /  25.4 °C 64 °F /  17.8 °C 29.9in /  1011.9hPa Calm     63% 0in /  0.0mm 135 W/m2
18:28 77.5 °F /  25.3 °C 64.4 °F /  18 °C 29.9in /  1011.9hPa Calm     64% 0in /  0.0mm 118 W/m2
18:33 77.2 °F /  25.1 °C 64.6 °F /  18.1 °C 29.9in /  1011.9hPa Calm     65% 0in /  0.0mm 105 W/m2
18:38 76.8 °F /  24.9 °C 64.2 °F /  17.9 °C 29.9in /  1011.9hPa Calm     65% 0in /  0.0mm 100 W/m2
18:43 76.5 °F /  24.7 °C 64.2 °F /  17.9 °C 29.9in /  1011.9hPa Calm     66% 0in /  0.0mm 97 W/m2
18:48 75.9 °F /  24.4 °C 64.2 °F /  17.9 °C 29.9in /  1011.9hPa Calm     67% 0in /  0.0mm 104 W/m2
18:53 75.7 °F /  24.3 °C 63.5 °F /  17.5 °C 29.9in /  1011.9hPa Calm     66% 0in /  0.0mm 98 W/m2
18:58 75.4 °F /  24.1 °C 62.8 °F /  17.1 °C 29.9in /  1011.9hPa Calm     65% 0in /  0.0mm 70 W/m2
19:03 74.8 °F /  23.8 °C 63.1 °F /  17.3 °C 29.9in /  1011.9hPa West 0.9mph /  1.4km/h 2mph /  3.2km/h 67% 0in /  0.0mm 54 W/m2
19:08 74.7 °F /  23.7 °C 63 °F /  17.2 °C 29.9in /  1011.9hPa Calm   2mph /  3.2km/h 67% 0in /  0.0mm 76 W/m2
19:13 74.5 °F /  23.6 °C 62.8 °F /  17.1 °C 29.9in /  1011.9hPa Calm   1mph /  1.6km/h 67% 0in /  0.0mm 100 W/m2
19:18 74.3 °F /  23.5 °C 63.1 °F /  17.3 °C 29.9in /  1011.9hPa Calm   2mph /  3.2km/h 68% 0in /  0.0mm 100 W/m2
19:23 73.9 °F /  23.3 °C 61.9 °F /  16.6 °C 29.9in /  1011.9hPa West 2.9mph /  4.7km/h 3mph /  4.8km/h 66% 0in /  0.0mm 93 W/m2
19:28 73.9 °F /  23.3 °C 61.9 °F /  16.6 °C 29.9in /  1011.9hPa West 2.9mph /  4.7km/h 4mph /  6.4km/h 66% 0in /  0.0mm 84 W/m2
19:33 73.9 °F /  23.3 °C 61.9 °F /  16.6 °C 29.9in /  1011.9hPa West 2mph /  3.2km/h 7mph /  11.3km/h 66% 0in /  0.0mm 79 W/m2
19:38 73.8 °F /  23.2 °C 61.7 °F /  16.5 °C 29.9in /  1011.9hPa West 0.9mph /  1.4km/h 4mph /  6.4km/h 66% 0in /  0.0mm 81 W/m2
19:43 73.6 °F /  23.1 °C 61.5 °F /  16.4 °C 29.9in /  1011.9hPa West 2.9mph /  4.7km/h 6mph /  9.7km/h 66% 0in /  0.0mm 83 W/m2
19:48 73.6 °F /  23.1 °C 61.5 °F /  16.4 °C 29.9in /  1011.9hPa WNW 4mph /  6.4km/h 5mph /  8km/h 66% 0in /  0.0mm 79 W/m2
19:53 73.4 °F /  23 °C 61 °F /  16.1 °C 29.9in /  1011.9hPa WNW 4mph /  6.4km/h 4mph /  6.4km/h 65% 0in /  0.0mm 69 W/m2
19:58 73.2 °F /  22.9 °C 60.8 °F /  16 °C 29.9in /  1011.9hPa West 2mph /  3.2km/h 5mph /  8km/h 65% 0in /  0.0mm 51 W/m2
20:03 73 °F /  22.8 °C 61 °F /  16.1 °C 29.9in /  1011.9hPa WSW 4mph /  6.4km/h 7mph /  11.3km/h 66% 0in /  0.0mm 33 W/m2
20:08 72.9 °F /  22.7 °C 60.8 °F /  16 °C 29.9in /  1011.9hPa West 2mph /  3.2km/h 6mph /  9.7km/h 66% 0in /  0.0mm 23 W/m2
20:13 72.7 °F /  22.6 °C 61.2 °F /  16.2 °C 29.9in /  1011.9hPa West 2mph /  3.2km/h 5mph /  8km/h 67% 0in /  0.0mm 16 W/m2
20:18 72.5 °F /  22.5 °C 61 °F /  16.1 °C 29.9in /  1011.9hPa SW 2.9mph /  4.7km/h 4mph /  6.4km/h 67% 0in /  0.0mm 12 W/m2
20:23 72.3 °F /  22.4 °C 61.2 °F /  16.2 °C 29.9in /  1011.9hPa West 2mph /  3.2km/h 3mph /  4.8km/h 68% 0in /  0.0mm 11 W/m2
20:28 72.1 °F /  22.3 °C 61 °F /  16.1 °C 29.9in /  1011.9hPa WSW 2.9mph /  4.7km/h 6mph /  9.7km/h 68% 0in /  0.0mm 9 W/m2
20:33 72.1 °F /  22.3 °C 61 °F /  16.1 °C 29.9in /  1011.9hPa WNW 4mph /  6.4km/h 5mph /  8km/h 68% 0in /  0.0mm 9 W/m2
20:38 72 °F /  22.2 °C 60.8 °F /  16 °C 29.9in /  1011.9hPa WNW 2mph /  3.2km/h 6mph /  9.7km/h 68% 0in /  0.0mm 9 W/m2
20:43 71.8 °F /  22.1 °C 61 °F /  16.1 °C 29.9in /  1011.9hPa WSW 2mph /  3.2km/h 3mph /  4.8km/h 69% 0in /  0.0mm 9 W/m2
20:48 71.8 °F /  22.1 °C 61 °F /  16.1 °C 29.9in /  1011.9hPa WSW 2.9mph /  4.7km/h 5mph /  8km/h 69% 0in /  0.0mm 9 W/m2
20:53 71.4 °F /  21.9 °C 60.8 °F /  16 °C 29.9in /  1011.9hPa West 0.9mph /  1.4km/h 4mph /  6.4km/h 69% 0in /  0.0mm 9 W/m2
20:58 71.2 °F /  21.8 °C 61 °F /  16.1 °C 29.9in /  1011.9hPa WNW 2mph /  3.2km/h 3mph /  4.8km/h 70% 0in /  0.0mm 7 W/m2
21:03 71.1 °F /  21.7 °C 60.8 °F /  16 °C 29.9in /  1011.9hPa WNW 4mph /  6.4km/h 6mph /  9.7km/h 70% 0in /  0.0mm 5 W/m2
21:08 71.1 °F /  21.7 °C 60.8 °F /  16 °C 29.9in /  1011.9hPa West 2mph /  3.2km/h 3mph /  4.8km/h 70% 0in /  0.0mm 0 W/m2
21:13 70.9 °F /  21.6 °C 61 °F /  16.1 °C 29.9in /  1011.9hPa NW 0.9mph /  1.4km/h 4mph /  6.4km/h 71% 0in /  0.0mm 0 W/m2
21:18 70.9 °F /  21.6 °C 61 °F /  16.1 °C 29.9in /  1011.9hPa West 4mph /  6.4km/h 4mph /  6.4km/h 71% 0in /  0.0mm 0 W/m2
21:23 70.9 °F /  21.6 °C 61 °F /  16.1 °C 29.9in /  1011.9hPa West 2mph /  3.2km/h 4mph /  6.4km/h 71% 0in /  0.0mm 0 W/m2
21:28 70.7 °F /  21.5 °C 60.8 °F /  16 °C 29.9in /  1011.9hPa West 0.9mph /  1.4km/h 3mph /  4.8km/h 71% 0in /  0.0mm 0 W/m2
21:33 70.7 °F /  21.5 °C 61.2 °F /  16.2 °C 29.9in /  1011.9hPa West 2mph /  3.2km/h 5mph /  8km/h 72% 0in /  0.0mm 0 W/m2
21:38 70.7 °F /  21.5 °C 61.2 °F /  16.2 °C 29.9in /  1011.9hPa SW 0.9mph /  1.4km/h 6mph /  9.7km/h 72% 0in /  0.0mm 0 W/m2
21:44 70.5 °F /  21.4 °C 61 °F /  16.1 °C 29.9in /  1011.9hPa WNW 2mph /  3.2km/h 3mph /  4.8km/h 72% 0in /  0.0mm 0 W/m2
21:49 70.7 °F /  21.5 °C 61.7 °F /  16.5 °C 29.9in /  1011.9hPa Calm   6mph /  9.7km/h 73% 0in /  0.0mm 0 W/m2
21:54 70.7 °F /  21.5 °C 61.7 °F /  16.5 °C 29.9in /  1012.2hPa WNW 2mph /  3.2km/h 4mph /  6.4km/h 73% 0in /  0.0mm 0 W/m2
21:59 70.5 °F /  21.4 °C 61.5 °F /  16.4 °C 29.9in /  1012.2hPa SW 2mph /  3.2km/h 6mph /  9.7km/h 73% 0in /  0.0mm 0 W/m2
22:04 70.5 °F /  21.4 °C 61.9 °F /  16.6 °C 29.9in /  1012.2hPa WSW 2.9mph /  4.7km/h 6mph /  9.7km/h 74% 0in /  0.0mm 0 W/m2
22:09 70.5 °F /  21.4 °C 61.9 °F /  16.6 °C 29.9in /  1012.2hPa WSW 4mph /  6.4km/h 6mph /  9.7km/h 74% 0in /  0.0mm 0 W/m2
22:14 70.5 °F /  21.4 °C 61.9 °F /  16.6 °C 29.9in /  1012.2hPa WSW 4mph /  6.4km/h 7mph /  11.3km/h 74% 0in /  0.0mm 0 W/m2
22:19 70.5 °F /  21.4 °C 62.2 °F /  16.8 °C 29.9in /  1012.2hPa West 2mph /  3.2km/h 5mph /  8km/h 75% 0in /  0.0mm 0 W/m2
22:24 70.3 °F /  21.3 °C 62.4 °F /  16.9 °C 29.9in /  1012.5hPa WNW 2.9mph /  4.7km/h 4mph /  6.4km/h 76% 0in /  0.0mm 0 W/m2
22:29 70.2 °F /  21.2 °C 62.2 °F /  16.8 °C 29.9in /  1012.5hPa West 2.9mph /  4.7km/h 7mph /  11.3km/h 76% 0in /  0.0mm 0 W/m2
22:34 70 °F /  21.1 °C 62.1 °F /  16.7 °C 29.9in /  1012.5hPa WNW 2.9mph /  4.7km/h 4mph /  6.4km/h 76% 0in /  0.0mm 0 W/m2
22:39 69.6 °F /  20.9 °C 62.1 °F /  16.7 °C 29.9in /  1012.5hPa WNW 2.9mph /  4.7km/h 6mph /  9.7km/h 77% 0in /  0.0mm 0 W/m2
22:44 69.4 °F /  20.8 °C 62.2 °F /  16.8 °C 29.9in /  1012.5hPa SW 2.9mph /  4.7km/h 4mph /  6.4km/h 78% 0in /  0.0mm 0 W/m2
22:49 69.4 °F /  20.8 °C 62.6 °F /  17 °C 29.9in /  1012.5hPa WSW 2mph /  3.2km/h 3mph /  4.8km/h 79% 0in /  0.0mm 0 W/m2
22:54 69.3 °F /  20.7 °C 62.4 °F /  16.9 °C 29.9in /  1012.5hPa West 2mph /  3.2km/h 5mph /  8km/h 79% 0in /  0.0mm 0 W/m2
22:59 69.1 °F /  20.6 °C 62.2 °F /  16.8 °C 29.9in /  1012.5hPa Calm   4mph /  6.4km/h 79% 0in /  0.0mm 0 W/m2
23:04 68.9 °F /  20.5 °C 62.4 °F /  16.9 °C 29.9in /  1012.5hPa SW 2mph /  3.2km/h 6mph /  9.7km/h 80% 0in /  0.0mm 0 W/m2
23:09 68.7 °F /  20.4 °C 62.2 °F /  16.8 °C 29.9in /  1012.5hPa West 2mph /  3.2km/h 3mph /  4.8km/h 80% 0in /  0.0mm 0 W/m2
23:14 68.7 °F /  20.4 °C 62.2 °F /  16.8 °C 29.9in /  1012.5hPa WNW 4mph /  6.4km/h 4mph /  6.4km/h 80% 0in /  0.0mm 0 W/m2
23:19 68.7 °F /  20.4 °C 62.2 °F /  16.8 °C 29.9in /  1012.5hPa West 0.9mph /  1.4km/h 3mph /  4.8km/h 80% 0in /  0.0mm 0 W/m2
23:24 68.5 °F /  20.3 °C 62.1 °F /  16.7 °C 29.9in /  1012.5hPa West 2mph /  3.2km/h 2mph /  3.2km/h 80% 0in /  0.0mm 0 W/m2
23:29 68.4 °F /  20.2 °C 61.5 °F /  16.4 °C 29.9in /  1012.2hPa West 2mph /  3.2km/h 3mph /  4.8km/h 79% 0in /  0.0mm 0 W/m2
23:34 68.4 °F /  20.2 °C 61.5 °F /  16.4 °C 29.9in /  1012.5hPa West 2.9mph /  4.7km/h 4mph /  6.4km/h 79% 0in /  0.0mm 0 W/m2
23:39 68.2 °F /  20.1 °C 61.3 °F /  16.3 °C 29.9in /  1012.2hPa West 2mph /  3.2km/h 4mph /  6.4km/h 79% 0in /  0.0mm 0 W/m2
23:44 68.2 °F /  20.1 °C 61.3 °F /  16.3 °C 29.9in /  1012.5hPa West 2.9mph /  4.7km/h 3mph /  4.8km/h 79% 0in /  0.0mm 0 W/m2
23:49 68 °F /  20 °C 61.2 °F /  16.2 °C 29.9in /  1012.2hPa WSW 4mph /  6.4km/h 4mph /  6.4km/h 79% 0in /  0.0mm 0 W/m2
23:54 67.8 °F /  19.9 °C 61 °F /  16.1 °C 29.9in /  1012.2hPa West 0.9mph /  1.4km/h 3mph /  4.8km/h 79% 0in /  0.0mm 0 W/m2
23:59 67.8 °F /  19.9 °C 61 °F /  16.1 °C 29.9in /  1012.5hPa West 2.9mph /  4.7km/h 5mph /  8km/h 79% 0in /  0.0mm 0 W/m2
Juneau County Weather
Compliments of Weather Underground - 4 mb